Time;durP1;ratioP1;P1;durP2;ratioP2;P2;SDS_P1;SDS_P2;PMS_P1;PMS_P2;Temp;Humidity;BMP_temperature;BMP_pressure;BME280_temperature;BME280_humidity;BME280_pressure;Samples;Min_cycle;Max_cycle;Signal;HPM_P1;HPM_P2
2023/05/23 00:01:08;;;;;;;4.63;3.20;;;;;;;14.50;86.24;101796.50;5072723;28;20021;-89
2023/05/23 00:03:33;;;;;;;4.13;3.00;;;;;;;14.48;86.28;101787.84;5072762;28;20362;-88
2023/05/23 00:06:00;;;;;;;4.63;3.00;;;;;;;14.44;85.53;101792.25;5072450;28;20027;-88
2023/05/23 00:08:25;;;;;;;5.03;3.05;;;;;;;14.45;86.15;101790.50;5073532;28;20067;-89
2023/05/23 00:10:51;;;;;;;3.87;2.60;;;;;;;14.43;85.38;101784.41;5075930;28;20071;-90
2023/05/23 00:13:16;;;;;;;3.97;2.87;;;;;;;14.44;84.89;101786.16;5076821;28;20025;-88
2023/05/23 00:15:42;;;;;;;8.57;4.37;;;;;;;14.41;87.48;101787.06;5076939;28;20024;-88
2023/05/23 00:18:09;;;;;;;7.83;4.20;;;;;;;14.38;87.18;101794.09;5076144;28;20108;-89
2023/05/23 00:20:36;;;;;;;6.53;3.40;;;;;;;14.35;88.48;101795.00;5076820;28;20020;-88
2023/05/23 00:23:02;;;;;;;15.18;7.18;;;;;;;14.27;88.03;101792.53;5076599;28;20480;-90
2023/05/23 00:25:32;;;;;;;11.35;6.00;;;;;;;14.24;88.03;101789.94;5076359;28;20017;-89
2023/05/23 00:28:01;;;;;;;9.57;5.10;;;;;;;14.25;89.82;101796.00;5076794;28;20384;-89
2023/05/23 00:30:29;;;;;;;18.00;9.60;;;;;;;14.18;89.90;101796.13;5085541;28;20088;-90
2023/05/23 00:32:54;;;;;;;16.60;8.52;;;;;;;14.18;91.24;101795.28;5089335;28;20032;-89
2023/05/23 00:35:20;;;;;;;17.43;9.10;;;;;;;14.13;91.46;101799.69;5076293;28;20034;-89
2023/05/23 00:37:49;;;;;;;16.27;8.60;;;;;;;14.11;91.63;101802.34;5075778;28;20510;-88
2023/05/23 00:40:14;;;;;;;15.02;8.07;;;;;;;14.08;91.19;101801.50;5076056;28;20032;-89
2023/05/23 00:42:40;;;;;;;10.80;6.33;;;;;;;14.09;91.14;101808.44;5076326;28;20025;-88
2023/05/23 00:45:05;;;;;;;11.10;5.83;;;;;;;14.07;90.24;101803.25;5075405;28;20032;-88
2023/05/23 00:47:31;;;;;;;12.80;6.60;;;;;;;14.10;92.55;101818.00;5075949;28;20021;-88
2023/05/23 00:49:56;;;;;;;13.33;7.20;;;;;;;14.07;90.95;101807.63;5075757;28;20344;-89
2023/05/23 00:52:23;;;;;;;15.80;7.30;;;;;;;14.05;90.83;101805.03;5074881;28;20024;-89
2023/05/23 00:54:49;;;;;;;16.23;8.40;;;;;;;14.01;91.73;101805.97;5075775;28;20027;-88
2023/05/23 00:57:14;;;;;;;13.63;7.00;;;;;;;14.02;91.96;101812.88;5075744;28;20021;-86
2023/05/23 00:59:39;;;;;;;12.37;6.70;;;;;;;14.03;91.67;101801.56;5075260;28;20058;-90
2023/05/23 01:02:05;;;;;;;11.90;6.37;;;;;;;14.04;91.09;101813.72;5075516;28;20476;-88
2023/05/23 01:04:32;;;;;;;13.27;6.83;;;;;;;13.99;91.85;101810.34;5075577;28;20056;-88
2023/05/23 01:06:59;;;;;;;9.90;5.38;;;;;;;14.02;90.23;101816.38;5075374;28;20025;-87
2023/05/23 01:09:27;;;;;;;10.25;5.68;;;;;;;14.02;90.85;101816.38;5075857;28;20029;-88
2023/05/23 01:12:23;;;;;;;15.48;7.82;;;;;;;13.96;91.70;101824.28;5075666;28;20017;-87
2023/05/23 01:15:10;;;;;;;18.38;9.80;;;;;;;13.84;92.36;101827.91;5074975;28;20086;-88
2023/05/23 01:17:58;;;;;;;21.08;10.77;;;;;;;13.75;92.91;101834.13;5074932;28;20035;-88
2023/05/23 01:20:46;;;;;;;20.40;10.57;;;;;;;13.71;92.67;101826.34;5074248;28;20056;-90
2023/05/23 01:23:33;;;;;;;17.17;8.50;;;;;;;13.72;91.99;101828.97;5075539;28;20052;-88
2023/05/23 01:26:02;;;;;;;16.85;8.52;;;;;;;13.73;91.99;101829.81;5076614;28;20150;-88
2023/05/23 01:28:39;;;;;;;16.15;7.78;;;;;;;13.74;92.25;101831.53;5074846;28;20051;-89
2023/05/23 01:31:07;;;;;;;14.82;7.15;;;;;;;13.67;91.43;101820.31;5083435;28;20033;-88
2023/05/23 01:33:34;;;;;;;12.88;6.40;;;;;;;13.73;91.16;101828.06;5089734;28;20013;-89
2023/05/23 01:36:04;;;;;;;18.95;8.02;;;;;;;13.65;91.40;101824.69;5074658;28;20032;-88
2023/05/23 01:38:29;;;;;;;15.27;7.05;;;;;;;13.69;91.59;101839.41;5075393;28;20032;-89
2023/05/23 01:40:55;;;;;;;14.33;6.77;;;;;;;13.69;90.75;101835.94;5074848;28;20024;-89
2023/05/23 01:43:21;;;;;;;12.77;6.30;;;;;;;13.73;91.27;101841.13;5075043;28;20070;-87
2023/05/23 01:45:48;;;;;;;15.02;7.55;;;;;;;13.70;91.68;101842.88;5075269;28;20029;-88
2023/05/23 01:48:15;;;;;;;17.63;8.70;;;;;;;13.66;91.82;101838.59;5073757;28;20072;-87
2023/05/23 01:50:44;;;;;;;14.40;7.35;;;;;;;13.65;91.31;101835.13;5074900;28;20030;-90
2023/05/23 01:53:10;;;;;;;14.00;6.85;;;;;;;13.67;92.04;101846.41;5074964;28;20422;-89
2023/05/23 01:55:36;;;;;;;17.88;8.50;;;;;;;13.60;92.24;101847.38;5074313;28;20101;-90
2023/05/23 01:58:02;;;;;;;17.60;8.00;;;;;;;13.57;92.59;101852.59;5074555;28;20461;-88
2023/05/23 02:00:27;;;;;;;17.40;7.53;;;;;;;13.60;92.63;101855.19;5074511;28;20081;-88
2023/05/23 02:02:53;;;;;;;22.27;10.13;;;;;;;13.55;93.86;101854.38;5074086;28;20032;-88
2023/05/23 02:05:21;;;;;;;22.03;11.20;;;;;;;13.46;93.89;101851.88;5074174;28;20020;-88
2023/05/23 02:07:46;;;;;;;21.13;10.18;;;;;;;13.41;93.82;101855.38;5074588;28;20414;-88
2023/05/23 02:10:11;;;;;;;15.83;7.43;;;;;;;13.42;92.78;101857.09;5073707;28;20071;-90
2023/05/23 02:12:37;;;;;;;20.67;10.33;;;;;;;13.39;94.75;101862.38;5074705;28;20016;-87
2023/05/23 02:15:02;;;;;;;22.40;12.47;;;;;;;13.25;96.75;101867.69;5073876;28;20158;-88
2023/05/23 02:17:28;;;;;;;19.97;10.00;;;;;;;13.28;94.95;101867.66;5073816;28;20027;-89
2023/05/23 02:19:53;;;;;;;20.53;10.90;;;;;;;13.29;95.85;101872.00;5073967;28;20024;-89
2023/05/23 02:22:22;;;;;;;20.67;10.53;;;;;;;13.28;96.08;101870.25;5073538;28;20030;-88
2023/05/23 02:24:48;;;;;;;20.88;9.93;;;;;;;13.29;96.50;101876.34;5073196;28;20035;-88
2023/05/23 02:27:13;;;;;;;19.13;9.57;;;;;;;13.27;95.57;101870.28;5073796;28;20489;-88
2023/05/23 02:29:42;;;;;;;16.17;8.23;;;;;;;13.31;95.38;101874.56;5074442;28;20052;-88
2023/05/23 02:32:07;;;;;;;17.42;8.52;;;;;;;13.32;95.43;101878.91;5072372;28;20021;-87
2023/05/23 02:34:32;;;;;;;21.30;10.20;;;;;;;13.25;95.42;101880.72;5073517;28;20029;-86
2023/05/23 02:36:57;;;;;;;22.10;10.20;;;;;;;13.24;95.33;101875.53;5074217;28;20138;-88
2023/05/23 02:39:23;;;;;;;18.53;8.93;;;;;;;13.26;95.05;101871.16;5073107;28;20013;-88
2023/05/23 02:41:48;;;;;;;16.80;7.97;;;;;;;13.29;95.02;101869.38;5073928;28;20575;-89
2023/05/23 02:44:13;;;;;;;11.97;6.10;;;;;;;13.34;94.39;101874.56;5073281;28;20046;-88
2023/05/23 02:46:39;;;;;;;19.50;9.30;;;;;;;13.31;95.08;101874.56;5073304;28;20021;-88
2023/05/23 02:49:04;;;;;;;16.73;7.83;;;;;;;13.32;94.26;101878.91;5073703;28;20030;-88
2023/05/23 02:51:31;;;;;;;20.20;8.93;;;;;;;13.28;95.13;101877.25;5073084;28;20020;-87
2023/05/23 02:53:56;;;;;;;18.60;8.18;;;;;;;13.24;94.32;101865.94;5073519;28;20116;-88
2023/05/23 02:56:21;;;;;;;17.33;8.17;;;;;;;13.27;94.14;101880.72;5073069;28;20060;-88
2023/05/23 02:58:46;;;;;;;15.70;7.10;;;;;;;13.27;94.08;101878.13;5073084;28;20078;-88
2023/05/23 03:01:12;;;;;;;15.03;7.07;;;;;;;13.30;93.99;101872.84;5072852;28;20032;-89
2023/05/23 03:03:38;;;;;;;13.63;6.37;;;;;;;13.30;93.46;101875.44;5073764;28;20036;-89
2023/05/23 03:06:05;;;;;;;12.38;6.00;;;;;;;13.32;93.50;101878.06;5072862;28;20066;-88
2023/05/23 03:08:30;;;;;;;12.70;6.63;;;;;;;13.28;93.46;101879.84;5073805;28;20513;-88
2023/05/23 03:10:55;;;;;;;11.23;5.40;;;;;;;13.27;92.79;101872.91;5073325;28;20135;-90
2023/05/23 03:13:21;;;;;;;8.47;4.83;;;;;;;13.27;93.23;101880.72;5072644;28;20031;-88
2023/05/23 03:15:46;;;;;;;13.27;6.33;;;;;;;13.16;93.73;101875.59;5073271;28;20480;-88
2023/05/23 03:18:11;;;;;;;11.97;6.23;;;;;;;13.06;94.34;101882.63;5073119;28;20099;-86
2023/05/23 03:20:37;;;;;;;14.13;6.17;;;;;;;13.01;94.93;101880.94;5072198;28;20105;-88
2023/05/23 03:23:02;;;;;;;10.93;5.47;;;;;;;13.06;93.86;101887.84;5073331;28;20468;-88
2023/05/23 03:25:28;;;;;;;9.30;5.00;;;;;;;13.07;93.43;101884.34;5073323;28;20441;-90
2023/05/23 03:27:53;;;;;;;11.07;5.33;;;;;;;13.08;93.75;101878.28;5072690;28;20036;-90
2023/05/23 03:30:19;;;;;;;8.47;4.37;;;;;;;13.11;93.13;101886.06;5073104;28;20028;-90
2023/05/23 03:32:45;;;;;;;10.75;4.60;;;;;;;13.14;93.26;101882.56;5073583;28;20067;-90
2023/05/23 03:35:11;;;;;;;8.37;4.63;;;;;;;13.16;93.39;101880.81;5073761;28;20028;-90
2023/05/23 03:37:36;;;;;;;9.33;4.70;;;;;;;13.12;93.67;101882.59;5073532;28;20032;-88
2023/05/23 03:40:02;;;;;;;10.77;5.13;;;;;;;13.16;93.54;101885.19;5073239;28;20025;-89
2023/05/23 03:42:27;;;;;;;7.90;4.13;;;;;;;13.18;93.21;101884.28;5073094;28;20070;-88
2023/05/23 03:44:53;;;;;;;6.80;3.97;;;;;;;13.19;93.21;101885.13;5076549;28;20084;-88
2023/05/23 03:47:18;;;;;;;7.83;4.07;;;;;;;13.22;92.73;101887.72;5077115;28;20032;-89
2023/05/23 03:49:44;;;;;;;5.10;3.30;;;;;;;13.26;92.51;101886.81;5077751;28;20020;-89
2023/05/23 03:52:09;;;;;;;7.67;4.37;;;;;;;13.29;93.31;101892.84;5077349;28;20477;-89
2023/05/23 03:54:35;;;;;;;6.87;4.10;;;;;;;13.32;92.21;101898.91;5077347;28;20112;-91
2023/05/23 03:57:01;;;;;;;5.03;3.30;;;;;;;13.34;91.89;101900.63;5076556;28;20119;-88
2023/05/23 03:59:27;;;;;;;6.80;3.58;;;;;;;13.35;92.81;101891.03;5077275;28;20091;-89
2023/05/23 04:01:52;;;;;;;6.23;3.40;;;;;;;13.36;92.57;101898.00;5076677;28;20487;-88
2023/05/23 04:04:19;;;;;;;9.10;4.70;;;;;;;13.34;92.85;101902.38;5077137;28;20025;-90
2023/05/23 04:06:46;;;;;;;11.15;5.40;;;;;;;13.31;93.39;101900.66;5076679;28;20020;-88
2023/05/23 04:09:12;;;;;;;10.07;4.65;;;;;;;13.32;92.68;101901.53;5076600;28;20027;-88
2023/05/23 04:11:38;;;;;;;12.23;5.10;;;;;;;13.27;93.17;101898.97;5077193;28;20090;-88
2023/05/23 04:14:03;;;;;;;11.63;5.53;;;;;;;13.24;93.30;101899.00;5076593;28;20024;-88
2023/05/23 04:16:31;;;;;;;15.33;5.60;;;;;;;13.27;92.94;101912.84;5076125;28;20024;-89
2023/05/23 04:18:57;;;;;;;12.40;5.45;;;;;;;13.25;92.71;101905.94;5077081;28;20039;-90
2023/05/23 04:21:23;;;;;;;15.37;7.07;;;;;;;13.10;94.02;101899.97;5076379;28;20028;-88
2023/05/23 04:23:48;;;;;;;13.70;6.40;;;;;;;13.19;93.26;101914.69;5076166;28;20016;-89
2023/05/23 04:26:13;;;;;;;11.90;5.60;;;;;;;13.19;93.75;101908.59;5076365;28;20027;-89
2023/05/23 04:28:38;;;;;;;14.03;5.83;;;;;;;13.21;93.58;101910.31;5076640;28;20039;-89
2023/05/23 04:31:04;;;;;;;10.50;4.87;;;;;;;13.22;93.36;101913.78;5076263;28;20045;-88
2023/05/23 04:33:29;;;;;;;10.70;4.80;;;;;;;13.29;93.00;101918.91;5076398;28;20481;-89
2023/05/23 04:35:56;;;;;;;8.90;4.33;;;;;;;13.31;92.51;101924.13;5076575;28;20488;-90
2023/05/23 04:38:23;;;;;;;6.10;3.58;;;;;;;13.36;91.96;101930.16;5076365;28;20020;-90
2023/05/23 04:40:49;;;;;;;4.95;3.47;;;;;;;13.39;91.98;101922.34;5076850;28;20095;-90
2023/05/23 04:43:15;;;;;;;7.03;3.63;;;;;;;13.40;92.55;101926.66;5076211;28;20381;-89
2023/05/23 04:45:40;;;;;;;15.30;6.80;;;;;;;13.32;93.29;101928.44;5076430;28;20017;-88
2023/05/23 04:48:07;;;;;;;15.83;6.87;;;;;;;13.30;93.55;101925.00;5075852;28;20591;-88
2023/05/23 04:50:34;;;;;;;16.83;7.30;;;;;;;13.29;93.44;101936.28;5075806;28;20482;-88
2023/05/23 04:52:59;;;;;;;14.30;6.15;;;;;;;13.31;92.73;101939.75;5075088;28;20074;-86
2023/05/23 04:55:25;;;;;;;11.13;5.37;;;;;;;13.34;92.64;101939.72;5074423;28;20468;-88
2023/05/23 04:57:51;;;;;;;11.37;5.37;;;;;;;13.37;92.91;101944.94;5075712;28;20476;-89
2023/05/23 05:00:17;;;;;;;15.65;6.60;;;;;;;13.36;93.07;101944.91;5075683;28;20581;-88
2023/05/23 05:02:42;;;;;;;11.90;5.40;;;;;;;13.38;93.07;101951.00;5076245;28;20032;-89
2023/05/23 05:05:08;;;;;;;12.60;6.13;;;;;;;13.38;93.17;101948.38;5075170;28;20066;-88
2023/05/23 05:07:35;;;;;;;18.70;8.17;;;;;;;13.35;93.24;101957.09;5076094;28;20457;-89
2023/05/23 05:10:00;;;;;;;13.38;6.35;;;;;;;13.34;92.55;101955.38;5075731;28;20067;-89
2023/05/23 05:12:26;;;;;;;14.57;6.50;;;;;;;13.32;92.64;101957.13;5075695;28;20025;-89
2023/05/23 05:14:51;;;;;;;19.60;8.60;;;;;;;13.27;93.15;101961.53;5075630;28;20450;-90
2023/05/23 05:17:18;;;;;;;18.67;7.70;;;;;;;13.19;92.89;101952.91;5075869;28;20029;-89
2023/05/23 05:19:44;;;;;;;13.70;6.05;;;;;;;13.20;92.68;101959.84;5089899;28;20031;-89
2023/05/23 05:22:09;;;;;;;14.82;6.43;;;;;;;13.20;93.18;101968.53;5085362;28;20093;-89
2023/05/23 05:24:35;;;;;;;20.50;8.40;;;;;;;13.12;92.69;101963.38;5076080;28;20024;-88
2023/05/23 05:27:00;;;;;;;16.20;7.10;;;;;;;13.13;92.58;101972.06;5074828;28;20028;-87
2023/05/23 05:29:25;;;;;;;12.80;5.87;;;;;;;13.18;92.05;101972.91;5076211;28;20361;-90
2023/05/23 05:31:51;;;;;;;20.47;8.33;;;;;;;13.06;92.90;101965.16;5075594;28;20054;-89
2023/05/23 05:34:16;;;;;;;23.17;10.10;;;;;;;13.05;93.25;101979.06;5074406;28;20033;-89
2023/05/23 05:36:45;;;;;;;20.43;8.67;;;;;;;12.94;93.29;101980.03;5075758;28;20043;-89
2023/05/23 05:39:12;;;;;;;19.27;7.85;;;;;;;12.99;92.44;101985.19;5074850;28;20389;-89
2023/05/23 05:41:38;;;;;;;20.45;8.00;;;;;;;12.98;93.53;101989.56;5074917;28;20027;-88
2023/05/23 05:44:03;;;;;;;18.60;7.63;;;;;;;12.94;93.56;101995.66;5075305;28;20119;-87
2023/05/23 05:46:28;;;;;;;22.03;9.07;;;;;;;12.86;93.84;101992.25;5075242;28;20025;-88
2023/05/23 05:48:53;;;;;;;18.70;7.83;;;;;;;12.86;93.44;102005.28;5074429;28;20465;-89
2023/05/23 05:51:20;;;;;;;17.63;7.03;;;;;;;12.83;92.73;102007.88;5073993;28;20044;-85
2023/05/23 05:53:46;;;;;;;17.57;7.20;;;;;;;12.79;92.33;102009.66;5074437;28;20082;-84
2023/05/23 05:56:11;;;;;;;16.93;6.50;;;;;;;12.70;92.51;102007.09;5073413;28;20107;-86
2023/05/23 05:58:36;;;;;;;20.13;7.83;;;;;;;12.66;92.64;102021.00;5074072;28;20036;-80
2023/05/23 06:01:08;;;;;;;20.23;7.60;;;;;;;12.62;92.54;102020.16;5074006;28;20020;-80
2023/05/23 06:03:33;;;;;;;21.95;7.90;;;;;;;12.57;92.57;102021.06;5074257;28;20036;-80
2023/05/23 06:05:59;;;;;;;19.80;7.67;;;;;;;12.42;92.93;102025.44;5073478;28;20396;-79
2023/05/23 06:08:25;;;;;;;18.93;6.63;;;;;;;12.44;93.12;102025.47;5073276;28;20029;-80
2023/05/23 06:10:50;;;;;;;18.90;7.03;;;;;;;12.39;92.94;102030.66;5073569;28;20047;-81
2023/05/23 06:13:15;;;;;;;16.07;6.23;;;;;;;12.36;92.69;102035.91;5073564;28;20043;-80
2023/05/23 06:15:43;;;;;;;16.00;6.20;;;;;;;12.30;92.81;102030.69;5073087;28;20033;-80
2023/05/23 06:18:10;;;;;;;18.77;6.65;;;;;;;12.19;93.32;102039.41;5073654;28;20377;-80
2023/05/23 06:20:35;;;;;;;16.48;6.30;;;;;;;12.09;93.68;102018.63;5073695;28;20235;-80
2023/05/23 06:23:02;;;;;;;17.70;6.27;;;;;;;12.14;93.60;102042.88;5072715;28;20107;-79
2023/05/23 06:25:28;;;;;;;14.95;5.85;;;;;;;12.13;93.45;102035.94;5073847;28;20121;-80
2023/05/23 06:27:53;;;;;;;18.33;7.17;;;;;;;12.09;93.47;102047.25;5073245;28;20078;-80
2023/05/23 06:30:18;;;;;;;14.27;5.60;;;;;;;12.13;93.31;102056.78;5072493;28;20023;-80
2023/05/23 06:32:44;;;;;;;14.77;5.87;;;;;;;12.01;93.06;102049.88;5073562;28;20507;-88
2023/05/23 06:35:09;;;;;;;18.40;6.17;;;;;;;11.91;93.10;102051.56;5065450;28;20025;-89
2023/05/23 06:37:34;;;;;;;15.13;5.67;;;;;;;11.93;93.36;102052.44;5056438;28;20095;-91
2023/05/23 06:40:02;;;;;;;16.43;6.37;;;;;;;11.93;92.82;102056.81;5128547;22;20052;-88
2023/05/23 06:42:28;;;;;;;16.13;5.70;;;;;;;11.90;92.51;102058.53;5072657;28;20021;-88
2023/05/23 06:44:53;;;;;;;11.03;4.87;;;;;;;11.94;92.74;102059.38;5072784;28;20111;-87
2023/05/23 06:47:18;;;;;;;13.27;5.23;;;;;;;11.97;92.31;102067.19;5073147;28;20389;-87
2023/05/23 06:49:44;;;;;;;15.80;5.30;;;;;;;11.94;92.21;102066.31;5073427;28;20142;-85
2023/05/23 06:52:09;;;;;;;14.20;5.43;;;;;;;11.88;92.13;102072.38;5071885;28;20460;-86
2023/05/23 06:54:35;;;;;;;13.77;5.37;;;;;;;11.86;92.56;102076.75;5074418;28;20026;-87
2023/05/23 06:57:00;;;;;;;14.63;5.60;;;;;;;11.80;92.53;102079.34;5093294;28;20020;-86
2023/05/23 06:59:28;;;;;;;16.10;5.97;;;;;;;11.77;91.91;102077.59;5092821;28;20064;-87
2023/05/23 07:01:53;;;;;;;15.35;5.30;;;;;;;11.77;91.53;102080.22;5092877;28;20132;-88
2023/05/23 07:04:21;;;;;;;15.37;6.00;;;;;;;11.71;90.54;102095.81;5093120;28;20384;-86
2023/05/23 07:06:46;;;;;;;15.73;5.47;;;;;;;11.73;90.07;102096.66;5092921;28;20020;-86
2023/05/23 07:09:12;;;;;;;12.27;4.80;;;;;;;11.80;90.61;102094.94;5092952;28;20020;-89
2023/05/23 07:11:38;;;;;;;11.97;4.77;;;;;;;11.89;87.96;102100.13;5092924;28;20140;-86
2023/05/23 07:14:04;;;;;;;13.30;5.10;;;;;;;11.93;87.97;102096.69;5092964;28;20035;-86
2023/05/23 07:16:30;;;;;;;14.55;5.05;;;;;;;12.05;86.93;102103.63;5093423;28;20104;-86
2023/05/23 07:18:55;;;;;;;11.33;4.70;;;;;;;12.15;87.16;102107.09;5091828;28;20107;-87
2023/05/23 07:21:20;;;;;;;15.00;5.20;;;;;;;12.18;83.25;102099.28;5102720;28;20021;-86
2023/05/23 07:23:46;;;;;;;13.27;4.77;;;;;;;12.30;83.75;102108.78;5102609;28;20032;-86
2023/05/23 07:26:11;;;;;;;16.47;5.50;;;;;;;12.38;81.49;102111.38;5078025;28;20024;-86
2023/05/23 07:28:36;;;;;;;15.80;5.20;;;;;;;12.52;81.92;102102.66;5072724;28;20028;-86
2023/05/23 07:31:02;;;;;;;15.23;5.00;;;;;;;12.65;80.88;102113.91;5072241;28;20028;-86
2023/05/23 07:33:27;;;;;;;12.03;4.43;;;;;;;12.75;80.34;102104.31;5072426;28;20020;-88
2023/05/23 07:35:52;;;;;;;16.77;5.60;;;;;;;12.82;79.43;102115.56;5072991;28;20026;-87
2023/05/23 07:38:17;;;;;;;15.67;5.33;;;;;;;12.86;78.96;102122.50;5072378;28;20020;-86
2023/05/23 07:40:43;;;;;;;14.57;5.33;;;;;;;12.89;76.24;102126.84;5085815;28;20430;-86
2023/05/23 07:43:08;;;;;;;17.17;5.50;;;;;;;12.92;77.48;102121.63;5092990;28;20114;-86
2023/05/23 07:45:33;;;;;;;15.47;5.63;;;;;;;12.93;77.20;102118.13;5092566;28;20024;-86
2023/05/23 07:47:59;;;;;;;16.77;5.83;;;;;;;12.97;77.46;102122.44;5091345;28;20499;-85
2023/05/23 07:50:26;;;;;;;13.10;5.50;;;;;;;13.00;76.96;102126.81;5092587;28;20024;-87
2023/05/23 07:52:51;;;;;;;15.23;5.55;;;;;;;13.00;76.07;102124.19;5092658;28;20514;-87
2023/05/23 07:55:17;;;;;;;13.53;5.60;;;;;;;13.03;76.30;102125.03;5084825;28;20028;-87
2023/05/23 07:57:42;;;;;;;13.27;5.40;;;;;;;12.98;75.90;102116.38;5072898;28;20027;-86
2023/05/23 08:00:08;;;;;;;11.53;4.80;;;;;;;13.18;75.30;102141.44;5072381;28;20029;-86
2023/05/23 08:02:34;;;;;;;13.23;5.18;;;;;;;13.12;76.71;102135.41;5072217;28;20031;-87
2023/05/23 08:04:59;;;;;;;12.77;5.47;;;;;;;13.08;75.19;102138.91;5072316;28;20107;-87
2023/05/23 08:07:24;;;;;;;16.10;5.40;;;;;;;12.94;75.57;102140.72;5072456;28;20029;-88
2023/05/23 08:09:50;;;;;;;13.47;5.27;;;;;;;12.77;76.03;102139.03;5071833;28;20429;-86
2023/05/23 08:12:15;;;;;;;13.80;5.00;;;;;;;12.81;77.22;102140.78;5072040;28;20013;-86
2023/05/23 08:14:41;;;;;;;14.73;4.97;;;;;;;12.81;77.04;102143.38;5072331;28;20024;-86
2023/05/23 08:17:06;;;;;;;13.77;4.77;;;;;;;12.87;77.17;102154.63;5071740;28;20052;-86
2023/05/23 08:19:31;;;;;;;14.20;5.20;;;;;;;12.81;77.53;102151.19;5072323;28;20013;-86
2023/05/23 08:21:56;;;;;;;11.80;4.93;;;;;;;12.83;77.71;102157.25;5081410;28;20032;-87
2023/05/23 08:24:25;;;;;;;13.57;5.03;;;;;;;12.90;77.78;102149.41;5091985;28;20020;-86
2023/05/23 08:26:51;;;;;;;15.35;4.82;;;;;;;12.91;78.28;102152.00;5072505;28;20033;-87
2023/05/23 08:29:19;;;;;;;15.30;5.17;;;;;;;12.92;77.96;102151.13;5072152;28;20165;-86
2023/05/23 08:31:44;;;;;;;12.45;4.65;;;;;;;12.95;78.44;102153.72;5076014;28;20020;-87
2023/05/23 08:34:10;;;;;;;10.10;4.30;;;;;;;13.01;77.85;102152.84;5075675;28;20032;-86
2023/05/23 08:36:35;;;;;;;9.63;4.23;;;;;;;13.06;77.68;102151.06;5075052;28;20035;-86
2023/05/23 08:39:01;;;;;;;13.03;4.53;;;;;;;13.01;77.71;102158.06;5075351;28;20056;-86
2023/05/23 08:41:28;;;;;;;9.80;4.20;;;;;;;12.93;78.09;102159.84;5075819;28;20392;-86
2023/05/23 08:43:54;;;;;;;8.63;3.95;;;;;;;13.01;78.64;102152.84;5074890;28;20468;-86
2023/05/23 08:46:21;;;;;;;7.83;3.70;;;;;;;13.11;78.54;102169.31;5091748;28;20043;-87
2023/05/23 08:48:51;;;;;;;11.98;4.32;;;;;;;13.11;78.15;102153.69;5095571;28;20063;-86
2023/05/23 08:51:17;;;;;;;9.30;3.90;;;;;;;13.16;78.81;102156.25;5094988;28;20016;-87
2023/05/23 08:53:47;;;;;;;12.15;4.43;;;;;;;13.08;78.31;102167.56;5081775;28;20040;-85
2023/05/23 08:56:13;;;;;;;10.82;4.28;;;;;;;12.95;79.43;102169.38;5077565;28;20048;-85
2023/05/23 08:58:41;;;;;;;13.77;4.78;;;;;;;12.83;79.95;102159.00;5074612;28;20477;-85
2023/05/23 09:01:08;;;;;;;10.65;4.45;;;;;;;12.97;80.30;102169.34;5073778;28;20139;-85
2023/05/23 09:03:36;;;;;;;10.25;4.13;;;;;;;13.18;80.57;102171.00;5084436;28;20524;-85
2023/05/23 09:06:02;;;;;;;9.60;3.80;;;;;;;13.49;79.89;102172.63;5037645;28;20060;-86
2023/05/23 09:08:27;;;;;;;8.00;3.75;;;;;;;13.76;80.17;102163.72;5046171;28;20025;-85
2023/05/23 09:10:53;;;;;;;9.03;3.80;;;;;;;13.85;76.89;102181.03;5069121;28;20027;-86
2023/05/23 09:13:21;;;;;;;9.07;3.53;;;;;;;13.85;77.76;102175.81;5073677;28;20036;-86
2023/05/23 09:16:03;;;;;;;10.20;3.25;;;;;;;13.81;77.02;102181.97;5074104;28;20543;-85
2023/05/23 09:18:37;;;;;;;7.22;2.97;;;;;;;13.84;78.17;102189.78;5074134;28;20032;-86
2023/05/23 09:21:03;;;;;;;9.88;3.40;;;;;;;13.63;76.07;102189.03;5074497;28;20420;-85
2023/05/23 09:23:36;;;;;;;7.70;2.83;;;;;;;13.65;77.26;102191.63;5074088;28;20035;-85
2023/05/23 09:26:10;;;;;;;12.13;3.08;;;;;;;13.72;76.13;102182.88;5074261;28;20400;-85
2023/05/23 09:28:38;;;;;;;11.30;3.20;;;;;;;13.75;75.11;102188.09;5074360;28;20025;-86
2023/05/23 09:31:09;;;;;;;9.85;2.85;;;;;;;13.87;74.66;102188.00;5073551;28;20115;-86
2023/05/23 09:33:37;;;;;;;9.70;2.80;;;;;;;13.98;75.37;102197.50;5074046;28;20465;-86
2023/05/23 09:36:04;;;;;;;10.82;3.05;;;;;;;13.98;73.14;102195.72;5074681;28;20032;-87
2023/05/23 09:38:29;;;;;;;6.63;2.88;;;;;;;14.07;74.30;102188.72;5074499;28;20024;-83
2023/05/23 09:40:56;;;;;;;8.80;3.20;;;;;;;14.01;70.83;102193.09;5073352;28;20035;-85
2023/05/23 09:43:22;;;;;;;10.30;2.80;;;;;;;14.00;72.88;102199.19;5074483;28;20017;-85
2023/05/23 09:45:47;;;;;;;12.13;3.00;;;;;;;13.96;70.26;102199.25;5074427;28;20017;-85
2023/05/23 09:48:12;;;;;;;9.87;2.97;;;;;;;13.84;72.35;102190.63;5073292;28;20031;-85
2023/05/23 09:50:38;;;;;;;8.27;2.53;;;;;;;13.97;72.15;102195.75;5074448;28;20085;-86
2023/05/23 09:53:04;;;;;;;10.20;2.70;;;;;;;14.10;70.90;102192.16;5074200;28;20013;-86
2023/05/23 09:55:29;;;;;;;8.23;2.70;;;;;;;14.23;70.01;102192.06;5081290;28;20028;-87
2023/05/23 09:57:57;;;;;;;13.67;3.30;;;;;;;13.95;67.97;102201.00;5094492;28;20023;-87
2023/05/23 10:00:24;;;;;;;9.88;3.13;;;;;;;13.86;68.68;102206.25;5093786;28;20476;-86
2023/05/23 10:03:09;;;;;;;10.93;2.70;;;;;;;13.84;66.43;102201.06;5094714;28;20392;-86
2023/05/23 10:05:55;;;;;;;7.13;2.88;;;;;;;13.94;66.60;102195.78;5092856;28;20036;-87
2023/05/23 10:08:26;;;;;;;8.98;2.70;;;;;;;14.16;65.50;102193.88;5093417;28;20189;-86
2023/05/23 10:10:57;;;;;;;11.05;2.88;;;;;;;14.34;65.38;102190.22;5094807;28;20032;-87
2023/05/23 10:13:26;;;;;;;9.23;2.83;;;;;;;14.55;65.84;102186.50;5094280;28;20065;-87
2023/05/23 10:15:58;;;;;;;10.85;2.85;;;;;;;14.82;65.06;102189.75;5093924;28;20020;-87
2023/05/23 10:18:28;;;;;;;12.05;3.35;;;;;;;15.08;64.88;102189.44;5094286;28;20020;-86
2023/05/23 10:20:56;;;;;;;13.13;3.00;;;;;;;14.91;63.16;102194.00;5094148;28;20128;-86
2023/05/23 10:23:22;;;;;;;8.68;2.90;;;;;;;15.04;62.74;102186.88;5092985;28;20070;-86
2023/05/23 10:25:48;;;;;;;8.55;2.80;;;;;;;15.35;61.24;102203.03;5094588;28;20350;-86
2023/05/23 10:28:14;;;;;;;6.95;2.70;;;;;;;15.63;61.34;102196.53;5093305;28;20043;-87
2023/05/23 10:30:39;;;;;;;9.00;3.00;;;;;;;15.90;60.17;102195.28;5093450;28;20020;-87
2023/05/23 10:33:07;;;;;;;10.27;2.77;;;;;;;16.00;57.01;102198.59;5093502;28;20028;-86
2023/05/23 10:35:51;;;;;;;9.30;2.78;;;;;;;16.10;59.46;102192.31;5082359;28;20035;-85
2023/05/23 10:38:37;;;;;;;12.70;3.33;;;;;;;16.24;56.21;102194.72;5073345;28;20036;-87
2023/05/23 10:41:22;;;;;;;11.88;3.08;;;;;;;16.18;57.63;102193.06;5072645;28;20024;-87
2023/05/23 10:43:59;;;;;;;7.78;2.75;;;;;;;16.26;55.35;102198.19;5072975;28;20090;-86
2023/05/23 10:47:00;;;;;;;9.85;2.80;;;;;;;16.08;55.61;102201.97;5073691;28;20029;-86
2023/05/23 10:49:40;;;;;;;10.45;2.78;;;;;;;16.14;56.67;102191.38;5066516;28;20024;-85
2023/05/23 10:52:14;;;;;;;13.50;3.50;;;;;;;16.17;54.67;102185.22;5076876;28;20023;-88
2023/05/23 10:54:49;;;;;;;11.75;3.40;;;;;;;16.26;55.50;102185.09;5093083;28;20457;-85
2023/05/23 10:57:26;;;;;;;8.10;2.75;;;;;;;16.55;54.76;102199.41;5092575;28;20134;-86
2023/05/23 10:59:52;;;;;;;10.23;3.20;;;;;;;16.85;56.53;102193.59;5093553;28;20039;-85
2023/05/23 11:02:25;;;;;;;13.40;3.80;;;;;;;17.00;52.47;102184.56;5093205;28;20369;-86
2023/05/23 11:05:30;;;;;;;10.95;3.08;;;;;;;16.60;52.87;102200.19;5088393;28;20020;-85
2023/05/23 11:08:25;;;;;;;9.02;2.80;;;;;;;16.53;55.14;102193.31;4991472;28;20046;-86
2023/05/23 11:11:03;;;;;;;11.88;3.33;;;;;;;16.43;51.45;102191.75;5072218;28;20035;-85
2023/05/23 11:14:01;;;;;;;12.13;3.10;;;;;;;16.57;54.97;102189.75;5073116;28;20027;-88
2023/05/23 11:16:30;;;;;;;7.05;2.70;;;;;;;16.87;52.68;102184.78;5075556;28;20025;-88
2023/05/23 11:19:17;;;;;;;10.38;3.05;;;;;;;17.01;51.48;102186.31;5072737;28;20039;-89
2023/05/23 11:21:44;;;;;;;9.73;3.25;;;;;;;17.06;51.71;102185.31;5073661;28;20029;-88